WetterOnline ( https://www.wetteronline.de )

Wetter aktuell Soltau

Aktuelles Wetter: Soltau (76m)

6-stündlich | Neueste Meldungen
Ortszeit Temperatur Wetter
Mi, 21.08. 20:00 18.8° C wolkig
Mi, 21.08. 14:00 19.8° C wolkenlos
Mi, 21.08. 8:00 11.8° C wolkenlos
Mi, 21.08. 2:00 13.4° C leicht bewölkt
Di, 20.08. 20:00 18.3° C bedeckt
Di, 20.08. 14:00 19.9° C wolkig
Di, 20.08. 8:00 13.5° C leicht bewölkt
Di, 20.08. 2:00 12.8° C leicht bewölkt
Ortszeit Temperatur Wetter
Mi, 21.08. 20:30 16.7° C wolkig
Mi, 21.08. 20:20 16.7° C wolkig
Mi, 21.08. 20:10 17.6° C wolkig
Mi, 21.08. 20:00 18.8° C wolkig
Mi, 21.08. 19:50 18.8° C wolkig
Mi, 21.08. 19:40 19.3° C leicht bewölkt
Mi, 21.08. 19:30 19.5° C leicht bewölkt
Mi, 21.08. 19:00 20.3° C wolkig
Mi, 21.08. 18:30 19.8° C fast wolkenlos
Mi, 21.08. 18:00 20.8° C wolkig
Mi, 21.08. 17:30 20.2° C wolkig
Ortszeit Relative Feuchte Sichtweite
Mi, 21.08. 20:00 52% 60 km
Mi, 21.08. 14:00 43% 50 km
Mi, 21.08. 8:00 89% 11 km
Mi, 21.08. 2:00 88% 35 km
Di, 20.08. 20:00 62% 50 km
Di, 20.08. 14:00 53% 40 km
Di, 20.08. 8:00 78% 35 km
Di, 20.08. 2:00 91% 35 km
Ortszeit Relative Feuchte Sichtweite
Mi, 21.08. 20:30 62% 50 km
Mi, 21.08. 20:20 62% -
Mi, 21.08. 20:10 66% -
Mi, 21.08. 20:00 52% 60 km
Mi, 21.08. 19:50 52% -
Mi, 21.08. 19:40 48% -
Mi, 21.08. 19:30 47% 55 km
Mi, 21.08. 19:00 44% 55 km
Mi, 21.08. 18:30 44% 45 km
Mi, 21.08. 18:00 42% 60 km
Mi, 21.08. 17:30 42% 60 km
Ortszeit Niederschlagsmenge Niederschlagsart
Mi, 21.08. 20:00 0.0 l/m2 in 12 Std. -
Mi, 21.08. 14:00 0.0 l/m2 in 6 Std. -
Mi, 21.08. 8:00 0.1 l/m2 in 12 Std. -
Mi, 21.08. 2:00 0.1 l/m2 in 6 Std. Regen
Di, 20.08. 20:00 0.1 l/m2 in 12 Std. Regen
Di, 20.08. 14:00 0.0 l/m2 in 6 Std. -
Di, 20.08. 8:00 0.1 l/m2 in 12 Std. -
Di, 20.08. 2:00 0.1 l/m2 in 6 Std. Regen
Ortszeit Niederschlagsmenge Niederschlagsart
Mi, 21.08. 20:30 0.0 l/m2 in 1 Std. -
Mi, 21.08. 20:20 keine Meldung -
Mi, 21.08. 20:10 keine Meldung -
Mi, 21.08. 20:00 0.0 l/m2 in 1 Std. -
Mi, 21.08. 19:50 keine Meldung -
Mi, 21.08. 19:40 keine Meldung -
Mi, 21.08. 19:30 0.0 l/m2 in 1 Std. -
Mi, 21.08. 19:00 0.0 l/m2 in 1 Std. -
Mi, 21.08. 18:30 0.0 l/m2 in 1 Std. -
Mi, 21.08. 18:00 0.0 l/m2 in 1 Std. -
Mi, 21.08. 17:30 0.0 l/m2 in 1 Std. -
Ortszeit Stärke Spitze Richtung
km/h Bft. km/h Grad Sektor
Mi, 21.08. 20:00 0 0 22 - -
Mi, 21.08. 14:00 11 2 25 260° W
Mi, 21.08. 8:00 4 1 11 220° SW
Mi, 21.08. 2:00 6 1 15 190° S
Di, 20.08. 20:00 6 1 31 360° N
Di, 20.08. 14:00 13 3 28 230° SW
Di, 20.08. 8:00 7 2 13 220° SW
Di, 20.08. 2:00 7 2 36 180° S
Ortszeit Stärke Spitze Richtung
km/h Bft. km/h Grad Sektor
Mi, 21.08. 20:30 2 1 2 340° N
Mi, 21.08. 20:20 2 1 - 340° N
Mi, 21.08. 20:10 2 1 - 20° N
Mi, 21.08. 20:00 0 0 11 - -
Mi, 21.08. 19:50 0 0 - 300° NW
Mi, 21.08. 19:40 4 1 - 310° NW
Mi, 21.08. 19:30 6 1 9 290° W
Mi, 21.08. 19:00 7 2 14 260° W
Mi, 21.08. 18:30 7 2 14 260° W
Mi, 21.08. 18:00 7 2 22 280° W
Mi, 21.08. 17:30 7 2 22 280° W
Ortszeit Untergrenze Bedeckung Gattung
total tief tief mittel hoch
Mi, 21.08. 20:00 9000 m 7/8 0/8 - - -
Mi, 21.08. 14:00 1500 m 0/8 0/8 - - -
Mi, 21.08. 8:00 - 0/8 0/8 - - -
Mi, 21.08. 2:00 1500 m 4/8 4/8 - - -
Di, 20.08. 20:00 1500 m 8/8 8/8 - - -
Di, 20.08. 14:00 1170 m 7/8 2/8 - - -
Di, 20.08. 8:00 8100 m 5/8 0/8 - - -
Di, 20.08. 2:00 1800 m 2/8 1/8 - - -
Ortszeit Bedeckungsgrad in Achtel und Wolkenuntergrenze
Mi, 21.08. 20:30 5(7200m) 6(8700m) 7(9000m)
Mi, 21.08. 20:20 5(7200m) 6(8700m) 7(9000m)
Mi, 21.08. 20:10 5(7500m) 8(9000m)
Mi, 21.08. 20:00 7(9000m) 2(8400m) 7(9000m)
Mi, 21.08. 19:50 7(9000m)
Mi, 21.08. 19:40 3(9000m) 6(9000m)
Mi, 21.08. 19:30 3(8700m) 6(9000m) 7(9000m)
Mi, 21.08. 19:00 4(2100m) 7(9000m)
Mi, 21.08. 18:30 1(2100m)
Mi, 21.08. 18:00 2(1500m) 5(2100m)
Mi, 21.08. 17:30 5(1800m)
Ortszeit Luftdruck NN (hPa) Tendenz (hPa in 3 Std.)
Mi, 21.08. 20:00 1028 - 0,1
Mi, 21.08. 14:00 1028 - 0,2
Mi, 21.08. 8:00 1028 + 1,6
Mi, 21.08. 2:00 1025 + 0,6
Di, 20.08. 20:00 1023 + 0,6
Di, 20.08. 14:00 1022 + 0,1
Di, 20.08. 8:00 1020 + 1,0
Di, 20.08. 2:00 1019 + 1,0
Ortszeit Luftdruck NN (hPa) Tendenz (hPa in 3 Std.)
Mi, 21.08. 20:30 1028 - 0,4
Mi, 21.08. 20:20 1028 keine Meldung
Mi, 21.08. 20:10 1028 keine Meldung
Mi, 21.08. 20:00 1028 - 0,1
Mi, 21.08. 19:50 1028 keine Meldung
Mi, 21.08. 19:40 1028 keine Meldung
Mi, 21.08. 19:30 1028 - 0,1
Mi, 21.08. 19:00 1028 - 0,1
Mi, 21.08. 18:30 1028 0,0
Mi, 21.08. 18:00 1028 0,0
Mi, 21.08. 17:30 1028 0,0
Ortszeit Schneehöhe (cm)
Mi, 21.08. 20:00 -
Mi, 21.08. 14:00 -
Mi, 21.08. 8:00 -
Mi, 21.08. 2:00 -
Di, 20.08. 20:00 -
Di, 20.08. 14:00 -
Di, 20.08. 8:00 -
Di, 20.08. 2:00 -
Ortszeit Schneehöhe (cm)
Mi, 21.08. 20:30 -
Mi, 21.08. 20:20 -
Mi, 21.08. 20:10 -
Mi, 21.08. 20:00 -
Mi, 21.08. 19:50 -
Mi, 21.08. 19:40 -
Mi, 21.08. 19:30 -
Mi, 21.08. 19:00 -
Mi, 21.08. 18:30 -
Mi, 21.08. 18:00 -
Mi, 21.08. 17:30 -
Link zu dieser Seite / Seite empfehlen

Das Wetter in ...